Flugplatz Ingolstadt Manching Airport

Bericht für ETSI

vom 25.09. um 07:20 UTC

Wind 8 kt aus 310°

Sichtweite 10 km oder mehr

Regen

gering bewölkt in 1800 ft

aufgebrochene Bewölkung in 3000 ft

Temperatur 10.0°C

Taupunkt 8.0°C

Luftfeuchtigkeit 87%

Luftdruck 1001 hPa

ETSI 250720Z 31008KT 9999 RA FEW018 BKN030 10/08 Q1001 BLU BLU TEMPO GRN

Prognose für ETSI

vom 25.09. um 07:17 UTC

Zwischen 08:00 UTC und 17:00 UTC

Wind 10 kt aus 260°

Sichtweite 9000 m

schwacher Regen

gering bewölkt in 800 ft

aufgelockert bewölkt in 1200 ft

aufgebrochene Bewölkung in 6000 ft


Zwischen 08:00 UTC und 17:00 UTC zeitweise

Wind 12 kt aus 240° in Böen 22 kt

Sichtweite 4000 m

Regen

gering bewölkt in 600 ft

aufgebrochene Bewölkung in 1200 ft

bedeckt in 4000 ft

TAF ETSI 250717Z 2508/2517 26010KT 9000 -RA FEW008 SCT012 BKN060 TEMPO 2508/2517 24012G22KT 4000 RA FEW006 BKN012 OVC040
Impressum